Time;durP1;ratioP1;P1;durP2;ratioP2;P2;SDS_P1;SDS_P2;PMS_P1;PMS_P2;Temp;Humidity;BMP_temperature;BMP_pressure;BME280_temperature;BME280_humidity;BME280_pressure;Samples;Min_cycle;Max_cycle;Signal;HPM_P1;HPM_P2
2021/01/02 00:05:34;;;;;;;67.47;23.45;;;;;;;6.88;71.11;101283.81;5090921;27;20398;-76
2021/01/02 00:19:07;;;;;;;60.58;25.02;;;;;;;6.97;70.48;101286.47;5096799;27;20527;-76
2021/01/02 00:22:02;;;;;;;64.55;24.27;;;;;;;7.01;70.81;101283.84;5094823;28;20036;-76
2021/01/02 00:24:36;;;;;;;55.72;24.25;;;;;;;6.90;70.78;101291.72;5086457;28;20032;-76
2021/01/02 00:27:07;;;;;;;61.08;26.00;;;;;;;6.84;71.39;101289.97;5089305;28;20644;-75
2021/01/02 00:32:58;;;;;;;57.75;24.35;;;;;;;6.98;70.83;101287.34;5096023;27;20126;-75
2021/01/02 00:35:28;;;;;;;65.20;26.67;;;;;;;6.78;71.05;101290.81;5079626;28;20033;-75
2021/01/02 00:38:11;;;;;;;53.88;25.10;;;;;;;6.86;71.02;101292.59;5078671;28;20029;-74
2021/01/02 00:40:38;;;;;;;58.28;25.10;;;;;;;6.91;71.16;101293.47;5077930;28;20020;-75
2021/01/02 00:43:05;;;;;;;59.95;26.88;;;;;;;6.87;70.86;101302.25;5074633;22;20045;-82
2021/01/02 00:45:32;;;;;;;60.85;25.33;;;;;;;6.91;70.88;101299.63;5038078;28;20041;-82
2021/01/02 00:48:00;;;;;;;62.95;27.35;;;;;;;6.93;70.74;101299.66;5036095;28;20036;-81
2021/01/02 00:50:28;;;;;;;66.47;27.95;;;;;;;6.90;70.72;101297.88;5037837;28;20041;-84
2021/01/02 00:53:03;;;;;;;60.40;28.02;;;;;;;7.02;70.65;101302.28;5039841;28;20029;-84
2021/01/02 00:55:52;;;;;;;62.83;27.52;;;;;;;6.93;70.52;101300.50;5046361;28;20029;-84
2021/01/02 01:01:04;;;;;;;65.30;26.50;;;;;;;6.90;70.50;101295.25;5043020;27;20378;-82
2021/01/02 01:04:09;;;;;;;60.30;26.23;;;;;;;7.01;69.88;101300.53;5024423;28;20392;-82
2021/01/02 01:06:42;;;;;;;55.88;25.45;;;;;;;6.98;70.18;101300.53;5019806;28;20113;-84
2021/01/02 01:09:14;;;;;;;66.78;25.15;;;;;;;6.99;69.78;101302.28;5016595;28;20056;-85
2021/01/02 01:11:49;;;;;;;60.88;26.73;;;;;;;6.88;70.64;101299.63;5017179;28;20466;-83
2021/01/02 01:14:16;;;;;;;56.47;27.23;;;;;;;6.85;70.35;101304.88;5016558;28;20029;-84
2021/01/02 01:16:51;;;;;;;61.25;26.10;;;;;;;6.89;69.92;101304.03;5017931;28;20030;-83
2021/01/02 01:19:20;;;;;;;62.60;27.77;;;;;;;6.80;70.55;101301.34;5016616;28;20413;-84
2021/01/02 01:21:51;;;;;;;61.53;28.45;;;;;;;6.91;70.38;101309.28;5041578;28;20040;-84
2021/01/02 01:30:05;;;;;;;61.53;25.75;;;;;;;6.75;70.80;101311.88;5012080;28;20458;-84
2021/01/02 01:32:37;;;;;;;68.43;27.83;;;;;;;6.91;70.03;101312.78;5008168;28;20034;-87
2021/01/02 01:35:04;;;;;;;60.33;26.45;;;;;;;6.83;70.41;101314.53;5007637;28;20041;-85
2021/01/02 01:37:32;;;;;;;63.60;25.90;;;;;;;6.90;70.11;101323.31;5007053;28;20038;-90
2021/01/02 01:40:00;;;;;;;54.92;26.65;;;;;;;6.88;69.94;101319.78;5007049;28;20076;-84
2021/01/02 01:42:43;;;;;;;62.85;27.45;;;;;;;6.86;69.98;101332.09;5006736;28;20121;-86
2021/01/02 01:48:46;;;;;;;67.88;27.52;;;;;;;6.80;70.07;101333.84;5073968;27;20417;-83
2021/01/02 01:54:20;;;;;;;55.58;24.95;;;;;;;6.86;70.20;101325.06;5098551;27;20391;-89
2021/01/02 01:56:50;;;;;;;58.80;25.10;;;;;;;6.80;70.05;101328.59;5093869;28;20593;-85
2021/01/02 02:01:57;;;;;;;66.72;27.15;;;;;;;6.82;70.00;101325.03;5077078;28;20464;-83
2021/01/02 02:04:57;;;;;;;59.25;25.77;;;;;;;6.80;69.99;101328.59;5046034;28;20067;-83
2021/01/02 02:07:49;;;;;;;60.78;25.95;;;;;;;6.86;69.57;101319.81;5061401;28;20037;-84
2021/01/02 02:10:33;;;;;;;55.53;25.47;;;;;;;6.92;69.44;101324.22;5045506;28;20037;-82
2021/01/02 02:13:10;;;;;;;57.13;25.40;;;;;;;6.84;69.67;101342.66;5043782;28;20033;-83
2021/01/02 02:15:47;;;;;;;62.08;26.73;;;;;;;6.91;69.44;101325.09;5044526;28;20106;-83
2021/01/02 02:18:24;;;;;;;59.20;25.52;;;;;;;6.89;69.74;101325.09;5045749;28;20032;-85
2021/01/02 02:20:53;;;;;;;54.03;24.90;;;;;;;6.85;69.72;101322.44;5045337;28;20025;-85
2021/01/02 02:23:35;;;;;;;53.83;24.10;;;;;;;6.87;69.76;101325.97;5046438;28;20472;-84
2021/01/02 02:31:45;;;;;;;54.13;25.55;;;;;;;6.74;69.54;101317.13;5052548;28;20379;-82
2021/01/02 02:34:13;;;;;;;51.10;23.52;;;;;;;6.72;69.46;101316.25;5054907;28;20095;-83
2021/01/02 02:36:41;;;;;;;63.35;25.63;;;;;;;6.71;69.24;101318.00;5056605;28;21051;-86
2021/01/02 02:39:11;;;;;;;54.60;25.13;;;;;;;6.73;69.41;101325.91;5055092;28;20030;-82
2021/01/02 02:44:24;;;;;;;55.58;24.30;;;;;;;6.66;69.35;101335.53;5068370;27;20950;-84
2021/01/02 02:46:55;;;;;;;55.58;24.35;;;;;;;6.59;69.19;101325.84;5060737;28;20729;-82
2021/01/02 02:49:25;;;;;;;58.28;25.90;;;;;;;6.51;69.44;101330.22;5065198;28;20056;-85
2021/01/02 02:54:42;;;;;;;55.13;26.77;;;;;;;6.37;69.41;101331.03;5056682;27;20542;-83
2021/01/02 02:57:12;;;;;;;56.10;26.35;;;;;;;6.36;69.35;101337.16;5057471;28;20487;-85
2021/01/02 02:59:38;;;;;;;59.90;26.42;;;;;;;6.34;69.13;101336.25;5055614;28;20492;-83
2021/01/02 03:02:06;;;;;;;61.75;28.13;;;;;;;6.30;69.54;101334.50;5057431;28;20476;-85
2021/01/02 03:04:33;;;;;;;64.55;29.35;;;;;;;6.25;69.60;101333.59;5055436;28;20467;-83
2021/01/02 03:07:04;;;;;;;67.35;28.15;;;;;;;6.23;69.82;101340.59;5057341;28;20415;-86
2021/01/02 03:09:33;;;;;;;63.38;28.58;;;;;;;6.25;69.87;101333.59;5055373;28;20048;-83
2021/01/02 03:12:00;;;;;;;65.30;29.08;;;;;;;6.27;69.71;101337.13;5054393;28;20052;-83
2021/01/02 03:14:26;;;;;;;67.95;29.10;;;;;;;6.33;69.80;101334.53;5055049;28;20039;-83
2021/01/02 03:17:01;;;;;;;65.20;27.35;;;;;;;6.33;69.96;101345.06;5056965;28;20043;-83
2021/01/02 03:19:28;;;;;;;70.40;29.60;;;;;;;6.29;70.22;101341.50;5055236;28;20037;-83
2021/01/02 03:21:55;;;;;;;72.78;30.95;;;;;;;6.34;70.09;101338.88;5056726;28;20053;-83
2021/01/02 03:24:22;;;;;;;68.38;31.15;;;;;;;6.36;70.19;101331.88;5054873;28;20037;-83
2021/01/02 03:26:49;;;;;;;64.43;30.27;;;;;;;6.25;70.76;101341.47;5056786;28;20033;-83
2021/01/02 03:29:15;;;;;;;74.50;32.22;;;;;;;6.36;70.21;101342.41;5055095;28;20388;-84
2021/01/02 03:31:42;;;;;;;71.55;31.13;;;;;;;6.28;70.87;101344.13;5053824;28;20116;-83
2021/01/02 03:34:09;;;;;;;71.60;31.38;;;;;;;6.32;70.66;101345.91;5054841;28;20033;-83
2021/01/02 03:36:36;;;;;;;71.60;29.42;;;;;;;6.33;70.44;101339.78;5054395;28;20472;-84
2021/01/02 03:39:04;;;;;;;66.63;29.65;;;;;;;6.32;70.86;101341.53;5054889;28;20049;-83
2021/01/02 03:41:30;;;;;;;65.78;31.02;;;;;;;6.39;70.67;101346.81;5053789;28;20032;-87
2021/01/02 03:43:57;;;;;;;66.40;29.50;;;;;;;6.38;70.71;101340.69;5028913;22;20039;-82
2021/01/02 03:46:28;;;;;;;75.13;33.47;;;;;;;6.50;70.50;101338.97;4993985;28;20092;-82
2021/01/02 03:48:55;;;;;;;71.18;33.03;;;;;;;6.48;70.51;101339.84;4998471;28;20037;-82
2021/01/02 03:51:24;;;;;;;77.05;31.00;;;;;;;6.50;70.39;101337.22;4994171;28;20569;-82
2021/01/02 03:53:51;;;;;;;75.57;32.08;;;;;;;6.39;71.12;101346.81;4988854;28;20164;-82
2021/01/02 03:56:17;;;;;;;70.43;29.85;;;;;;;6.46;70.77;101344.22;4994339;28;20037;-82
2021/01/02 03:58:44;;;;;;;76.30;32.47;;;;;;;6.50;70.59;101334.59;4992326;28;20035;-82
2021/01/02 04:01:13;;;;;;;69.13;29.10;;;;;;;6.62;70.61;101333.78;4988997;28;20022;-82
2021/01/02 04:03:40;;;;;;;64.32;28.90;;;;;;;6.57;70.58;101346.03;4992365;28;20065;-83
2021/01/02 04:06:07;;;;;;;84.72;33.20;;;;;;;6.59;70.28;101331.13;4975792;28;20509;-82
2021/01/02 04:08:33;;;;;;;66.70;28.42;;;;;;;6.61;70.10;101343.41;4979532;28;20038;-82
2021/01/02 04:10:59;;;;;;;76.32;32.28;;;;;;;6.54;70.31;101330.22;4981171;28;20030;-82
2021/01/02 04:13:26;;;;;;;66.75;30.92;;;;;;;6.56;70.10;101333.75;4979868;28;20046;-82
2021/01/02 04:15:52;;;;;;;76.90;30.48;;;;;;;6.49;70.10;101332.81;4981385;28;20500;-81
2021/01/02 04:18:19;;;;;;;76.15;31.42;;;;;;;6.44;70.06;101340.72;4979160;28;20031;-82
2021/01/02 04:20:48;;;;;;;73.90;29.83;;;;;;;6.48;69.91;101337.22;4981480;28;20431;-82
2021/01/02 04:23:14;;;;;;;61.33;27.00;;;;;;;6.47;69.43;101342.47;4978583;28;20041;-82
2021/01/02 04:25:41;;;;;;;76.07;30.40;;;;;;;6.34;69.54;101346.78;4981042;28;20037;-82
2021/01/02 04:28:10;;;;;;;68.25;29.02;;;;;;;6.30;69.54;101342.38;4978879;28;20544;-82
2021/01/02 04:30:36;;;;;;;72.80;29.88;;;;;;;6.20;70.03;101341.44;4981040;28;20034;-82
2021/01/02 04:33:03;;;;;;;73.22;31.17;;;;;;;6.20;69.81;101337.94;4978535;28;22345;-82
2021/01/02 04:35:29;;;;;;;83.68;32.92;;;;;;;6.09;70.41;101346.66;4981191;28;20061;-82
2021/01/02 04:37:55;;;;;;;71.00;29.80;;;;;;;6.10;70.37;101345.75;4978668;28;20038;-82
2021/01/02 04:40:22;;;;;;;70.72;31.05;;;;;;;6.13;70.19;101344.91;4981307;28;20038;-82
2021/01/02 04:42:49;;;;;;;81.53;32.80;;;;;;;6.03;70.55;101354.50;4977675;28;20062;-82
2021/01/02 04:45:17;;;;;;;80.40;32.53;;;;;;;6.06;70.25;101353.66;4981389;28;20027;-82
2021/01/02 04:47:45;;;;;;;75.00;30.10;;;;;;;6.11;69.96;101347.53;4977783;28;20411;-82
2021/01/02 04:50:12;;;;;;;70.53;30.58;;;;;;;6.03;69.73;101353.59;4980885;28;20052;-82
2021/01/02 04:52:38;;;;;;;67.80;29.17;;;;;;;5.99;69.58;101347.44;4977838;28;20045;-82
2021/01/02 04:55:07;;;;;;;81.45;30.98;;;;;;;6.02;69.54;101350.13;4980757;28;20034;-82
2021/01/02 04:57:35;;;;;;;68.82;30.45;;;;;;;5.89;69.48;101348.22;4977937;28;20443;-82
2021/01/02 05:00:04;;;;;;;76.63;31.55;;;;;;;5.84;69.81;101353.44;4981224;28;20037;-82
2021/01/02 05:02:33;;;;;;;76.35;31.45;;;;;;;5.89;69.59;101350.84;4978140;28;20129;-82
2021/01/02 05:05:00;;;;;;;78.22;31.23;;;;;;;5.86;69.35;101351.72;4980472;28;20073;-82
2021/01/02 05:07:28;;;;;;;72.30;31.75;;;;;;;5.83;69.47;101351.66;4980859;28;20022;-82
2021/01/02 05:09:55;;;;;;;79.57;32.58;;;;;;;5.80;69.23;101352.53;4978202;28;20030;-82
2021/01/02 05:12:25;;;;;;;64.35;28.05;;;;;;;5.80;69.17;101355.16;4994949;23;20466;-83
2021/01/02 05:17:47;;;;;;;66.68;27.42;;;;;;;5.81;69.56;101364.81;5078647;27;20860;-84
2021/01/02 05:20:15;;;;;;;86.35;33.47;;;;;;;5.83;69.70;101365.72;5065926;28;20036;-82
2021/01/02 05:22:42;;;;;;;69.07;27.58;;;;;;;5.83;69.92;101363.09;5063100;28;20112;-85
2021/01/02 05:25:13;;;;;;;79.78;31.98;;;;;;;5.87;70.28;101360.47;5057102;28;20525;-83
2021/01/02 05:27:41;;;;;;;78.07;29.00;;;;;;;5.94;70.12;101367.53;5054076;28;20122;-85
2021/01/02 05:35:44;;;;;;;82.35;32.75;;;;;;;6.05;70.37;101375.56;5054716;28;20393;-82
2021/01/02 05:38:20;;;;;;;81.85;30.80;;;;;;;6.07;70.48;101377.31;5049469;28;20392;-82
2021/01/02 05:43:27;;;;;;;94.72;36.50;;;;;;;6.13;70.68;101380.00;5069210;27;20495;-82
2021/01/02 05:45:54;;;;;;;95.35;34.38;;;;;;;6.07;71.03;101377.31;5044400;28;20052;-82
2021/01/02 05:48:22;;;;;;;76.85;30.38;;;;;;;6.21;70.66;101376.56;5042498;28;20069;-83
2021/01/02 05:50:54;;;;;;;95.53;34.00;;;;;;;6.23;70.89;101380.94;5044620;28;20029;-83
2021/01/02 05:58:45;;;;;;;112.95;34.08;;;;;;;6.24;71.10;101376.56;5097577;27;20731;-84
2021/01/02 06:01:14;;;;;;;93.15;35.03;;;;;;;6.28;71.05;101373.06;5091320;28;20025;-83
2021/01/02 06:03:44;;;;;;;93.78;34.33;;;;;;;6.34;70.61;101370.47;5088554;28;20062;-83
2021/01/02 06:06:12;;;;;;;88.22;34.08;;;;;;;6.28;70.85;101373.06;5079170;28;20494;-84
2021/01/02 06:11:25;;;;;;;114.63;35.72;;;;;;;6.25;71.20;101378.31;5067267;28;20450;-82
2021/01/02 06:13:53;;;;;;;98.75;34.08;;;;;;;6.35;70.91;101377.50;5065199;28;20444;-82
2021/01/02 06:16:19;;;;;;;98.90;34.30;;;;;;;6.36;70.59;101383.66;5066532;28;20506;-84
2021/01/02 06:18:47;;;;;;;112.53;35.45;;;;;;;6.38;70.62;101382.78;5065367;28;20450;-83
2021/01/02 06:21:17;;;;;;;116.88;36.38;;;;;;;6.35;70.81;101385.41;5066346;28;20361;-88
2021/01/02 06:23:45;;;;;;;110.45;34.58;;;;;;;6.39;70.65;101381.03;5065084;28;20047;-86
2021/01/02 06:26:13;;;;;;;99.57;36.78;;;;;;;6.40;70.93;101386.28;5062271;28;20434;-83
2021/01/02 06:28:42;;;;;;;127.78;37.75;;;;;;;6.45;70.79;101384.56;5062179;28;20040;-85
2021/01/02 06:31:11;;;;;;;136.52;37.60;;;;;;;6.42;70.47;101387.19;5066212;28;20368;-82
2021/01/02 06:33:44;;;;;;;166.85;41.30;;;;;;;6.45;70.33;101389.84;5062537;28;20056;-82
2021/01/02 06:36:33;;;;;;;122.47;35.53;;;;;;;6.35;70.83;101387.16;5063443;28;20032;-84
2021/01/02 06:39:24;;;;;;;198.85;42.22;;;;;;;6.42;70.90;101389.84;5062691;28;20431;-82
2021/01/02 06:41:52;;;;;;;126.05;36.97;;;;;;;6.39;70.63;101391.56;5065691;28;20111;-83
2021/01/02 06:44:39;;;;;;;119.95;35.67;;;;;;;6.52;70.55;101392.50;5057453;22;20080;-81
2021/01/02 06:49:52;;;;;;;165.93;40.42;;;;;;;6.43;70.98;101402.13;5067535;28;20413;-82
2021/01/02 06:52:35;;;;;;;173.18;42.55;;;;;;;6.46;70.90;101406.53;5056122;28;20029;-83
2021/01/02 06:55:22;;;;;;;193.20;42.38;;;;;;;6.56;70.75;101402.19;5037814;28;20128;-82
2021/01/02 06:57:49;;;;;;;218.65;47.67;;;;;;;6.43;71.32;101406.50;5039422;28;20072;-81
2021/01/02 07:00:25;;;;;;;176.40;40.80;;;;;;;6.45;71.00;101399.50;5036877;28;20022;-82
2021/01/02 07:02:53;;;;;;;163.00;45.05;;;;;;;6.46;70.99;101407.41;5038356;28;20044;-81
2021/01/02 07:05:47;;;;;;;146.70;40.00;;;;;;;6.57;71.00;101409.22;5037950;28;20037;-82
2021/01/02 07:08:42;;;;;;;158.10;42.42;;;;;;;6.60;70.70;101409.25;5036578;28;20045;-82
2021/01/02 07:11:30;;;;;;;231.50;43.38;;;;;;;6.61;70.92;101405.75;5035859;28;20022;-82
2021/01/02 07:19:39;;;;;;;280.73;46.97;;;;;;;6.46;71.26;101412.66;5078590;28;20443;-82
2021/01/02 07:24:51;;;;;;;162.93;38.05;;;;;;;6.61;70.80;101411.00;5024667;23;20097;-82
2021/01/02 07:27:19;;;;;;;195.30;42.10;;;;;;;6.59;70.92;101413.63;5005156;28;20023;-83
2021/01/02 07:29:48;;;;;;;211.45;43.22;;;;;;;6.58;70.93;101419.75;5006959;28;20041;-83
2021/01/02 07:32:17;;;;;;;163.02;40.75;;;;;;;6.58;70.96;101419.75;5007770;28;20032;-82
2021/01/02 07:34:49;;;;;;;206.32;40.78;;;;;;;6.57;70.90;101427.66;5006530;28;20520;-82
2021/01/02 07:37:18;;;;;;;224.95;42.83;;;;;;;6.53;71.20;101428.50;5007476;28;20034;-82
2021/01/02 07:42:52;;;;;;;155.90;39.65;;;;;;;6.54;70.99;101436.44;5061520;27;20377;-81
2021/01/02 07:45:23;;;;;;;264.55;46.15;;;;;;;6.36;71.30;101437.16;5043457;28;20082;-81
2021/01/02 07:47:53;;;;;;;134.50;38.78;;;;;;;6.51;70.97;101440.78;5044782;28;20033;-81
2021/01/02 07:50:22;;;;;;;144.50;41.03;;;;;;;6.44;71.32;101440.75;5041334;28;20100;-81
2021/01/02 07:52:51;;;;;;;118.82;38.03;;;;;;;6.48;71.03;101444.28;5040882;28;20040;-81
2021/01/02 07:55:21;;;;;;;188.43;42.83;;;;;;;6.40;71.33;101448.59;5043689;28;20025;-81
2021/01/02 07:57:48;;;;;;;147.60;36.58;;;;;;;6.39;71.44;101455.63;5041804;28;20056;-81
2021/01/02 08:00:14;;;;;;;159.82;41.05;;;;;;;6.42;71.24;101458.28;5043433;28;20440;-81
2021/01/02 08:02:41;;;;;;;171.52;38.55;;;;;;;6.41;71.40;101459.13;5044321;28;20116;-81
2021/01/02 08:05:16;;;;;;;114.28;34.90;;;;;;;6.44;71.34;101453.00;5043158;28;20034;-81
2021/01/02 08:07:53;;;;;;;105.20;33.90;;;;;;;6.58;71.03;101467.16;5044139;28;20419;-81
2021/01/02 08:10:19;;;;;;;129.05;36.35;;;;;;;6.50;71.24;101470.63;5043744;28;20142;-81
2021/01/02 08:12:47;;;;;;;119.32;35.20;;;;;;;6.52;71.27;101468.84;5044518;28;20033;-81
2021/01/02 08:15:17;;;;;;;170.93;40.03;;;;;;;6.53;71.23;101478.50;5043126;28;20061;-81
2021/01/02 08:17:44;;;;;;;148.80;42.35;;;;;;;6.37;71.65;101486.31;5043285;28;20038;-81
2021/01/02 08:20:12;;;;;;;162.38;41.55;;;;;;;6.51;71.45;101488.19;5043690;28;20040;-81
2021/01/02 08:22:38;;;;;;;137.95;38.72;;;;;;;6.50;71.32;101487.28;5043275;28;20128;-81
2021/01/02 08:25:18;;;;;;;152.68;41.03;;;;;;;6.59;71.24;101486.47;5043275;28;20037;-81
2021/01/02 08:27:47;;;;;;;152.23;41.67;;;;;;;6.36;71.81;101486.31;5040807;28;20787;-81
2021/01/02 08:30:14;;;;;;;127.75;39.55;;;;;;;6.51;71.36;101482.91;5043826;28;20033;-81
2021/01/02 08:32:50;;;;;;;130.55;41.10;;;;;;;6.61;71.03;101485.59;5042915;28;20069;-81
2021/01/02 08:38:10;;;;;;;107.35;36.63;;;;;;;6.62;71.17;101482.09;4973500;28;20434;-82
2021/01/02 08:43:21;;;;;;;100.90;34.70;;;;;;;6.60;71.58;101480.31;5073109;27;20413;-83
2021/01/02 08:45:59;;;;;;;138.02;39.25;;;;;;;6.52;71.71;101482.00;5062996;28;20033;-84
2021/01/02 08:48:27;;;;;;;102.85;34.97;;;;;;;6.55;71.49;101484.69;5063746;28;20079;-83
2021/01/02 08:50:54;;;;;;;89.65;32.20;;;;;;;6.55;71.29;101487.31;5066953;28;20119;-83
2021/01/02 08:53:29;;;;;;;110.43;36.72;;;;;;;6.67;71.02;101482.13;5065036;28;20044;-83
2021/01/02 08:55:55;;;;;;;112.70;36.75;;;;;;;6.61;71.28;101484.72;5066804;28;20025;-83
2021/01/02 08:58:36;;;;;;;92.75;33.28;;;;;;;6.79;71.00;101490.13;5065382;28;20063;-83
2021/01/02 09:01:03;;;;;;;84.70;32.80;;;;;;;6.78;71.13;101485.72;5065467;28;20041;-83
2021/01/02 09:03:30;;;;;;;119.20;35.28;;;;;;;6.84;71.26;101484.88;5066160;28;20123;-83
2021/01/02 09:05:56;;;;;;;127.47;34.58;;;;;;;6.93;70.85;101476.16;5065522;28;20040;-83
2021/01/02 09:08:22;;;;;;;138.38;37.85;;;;;;;6.91;70.69;101478.75;5065882;28;20074;-83
2021/01/02 09:10:55;;;;;;;129.02;37.30;;;;;;;7.05;70.44;101480.59;5066779;28;20514;-83
2021/01/02 09:13:24;;;;;;;93.40;33.28;;;;;;;6.96;70.90;101487.56;5066261;28;20135;-83
2021/01/02 09:15:56;;;;;;;108.50;32.50;;;;;;;6.99;71.10;101483.19;5064988;28;20032;-83
2021/01/02 09:23:56;;;;;;;87.65;31.38;;;;;;;7.05;70.54;101491.13;5067239;27;20424;-82
2021/01/02 09:26:32;;;;;;;93.82;33.28;;;;;;;7.05;70.74;101497.28;5067096;28;20450;-82
2021/01/02 09:29:00;;;;;;;202.73;36.70;;;;;;;7.01;70.57;101500.75;5065792;28;20029;-82
2021/01/02 09:31:27;;;;;;;206.40;38.40;;;;;;;7.05;70.51;101492.03;5066686;28;20033;-82
2021/01/02 09:33:54;;;;;;;133.73;33.95;;;;;;;7.09;70.44;101506.97;5064854;28;20052;-83
2021/01/02 09:36:21;;;;;;;124.70;31.80;;;;;;;7.13;70.42;101499.97;5066736;28;20035;-82
2021/01/02 09:38:49;;;;;;;124.25;32.03;;;;;;;7.12;70.13;101512.22;5065026;28;20143;-82
2021/01/02 09:41:19;;;;;;;103.78;30.70;;;;;;;7.12;70.36;101509.59;5066667;28;20029;-82
2021/01/02 09:43:46;;;;;;;103.68;31.23;;;;;;;7.18;70.40;101516.66;5066774;28;20037;-82
2021/01/02 09:46:16;;;;;;;148.13;35.13;;;;;;;7.17;70.38;101508.75;5066292;28;20083;-82
2021/01/02 09:48:44;;;;;;;137.52;34.78;;;;;;;7.26;70.44;101516.69;5065504;28;20040;-82
2021/01/02 09:51:10;;;;;;;149.13;34.10;;;;;;;7.27;70.79;101518.47;5065437;28;20115;-82
2021/01/02 09:53:37;;;;;;;129.82;31.65;;;;;;;7.22;70.74;101520.19;5065404;28;20480;-82
2021/01/02 09:56:03;;;;;;;183.30;35.38;;;;;;;7.18;70.72;101518.41;5066395;28;20033;-82
2021/01/02 09:58:29;;;;;;;126.00;32.22;;;;;;;7.16;71.14;101514.91;5064540;28;20037;-82
2021/01/02 10:00:55;;;;;;;122.22;31.13;;;;;;;7.14;70.74;101520.16;5066161;28;20099;-82
2021/01/02 10:03:21;;;;;;;134.00;32.50;;;;;;;7.16;70.90;101522.81;5064014;28;20048;-83
2021/01/02 10:05:48;;;;;;;132.48;32.58;;;;;;;7.10;70.50;101527.19;5065697;28;20051;-82
2021/01/02 10:08:14;;;;;;;141.93;33.92;;;;;;;7.14;70.84;101520.16;5063975;28;20095;-82
2021/01/02 10:10:40;;;;;;;155.23;31.83;;;;;;;7.22;70.38;101528.09;5065964;28;20068;-82
2021/01/02 10:13:06;;;;;;;199.85;38.85;;;;;;;7.16;70.81;101520.16;5063731;28;20021;-82
2021/01/02 10:15:33;;;;;;;131.45;34.28;;;;;;;7.28;70.53;101514.97;5065132;28;20028;-82
2021/01/02 10:17:59;;;;;;;147.10;38.22;;;;;;;7.37;70.35;101522.91;5063890;28;20044;-82
2021/01/02 10:20:25;;;;;;;244.00;38.17;;;;;;;7.20;70.76;101520.19;5065359;28;20036;-82
2021/01/02 10:22:51;;;;;;;208.95;37.85;;;;;;;7.36;70.75;101521.13;5063759;28;20041;-81
2021/01/02 10:25:18;;;;;;;287.65;41.97;;;;;;;7.33;70.80;101522.88;5065430;28;20035;-82
2021/01/02 10:27:44;;;;;;;178.15;33.28;;;;;;;7.26;70.71;101527.25;5063990;28;20487;-82
2021/01/02 10:30:12;;;;;;;220.48;38.38;;;;;;;7.39;70.40;101521.16;5065389;28;20075;-82
2021/01/02 10:32:38;;;;;;;339.75;44.92;;;;;;;7.39;70.42;101528.16;5063965;28;20078;-82
2021/01/02 10:35:07;;;;;;;340.33;45.45;;;;;;;7.33;70.47;101526.41;5049250;28;20021;-82
2021/01/02 10:37:34;;;;;;;244.48;38.97;;;;;;;7.37;70.51;101524.66;5050479;28;20029;-82
2021/01/02 10:40:00;;;;;;;207.98;38.10;;;;;;;7.39;70.33;101530.81;5048305;28;20361;-82
2021/01/02 10:42:29;;;;;;;191.10;37.92;;;;;;;7.48;70.46;101532.59;5050347;28;20064;-82
2021/01/02 10:44:55;;;;;;;111.32;32.55;;;;;;;7.54;70.18;101528.25;5048428;28;20111;-83
2021/01/02 10:47:25;;;;;;;174.30;39.55;;;;;;;7.63;70.61;101527.38;5050338;28;20057;-82
2021/01/02 10:49:52;;;;;;;160.95;35.00;;;;;;;7.58;70.71;101527.38;5047939;28;20079;-82
2021/01/02 10:52:20;;;;;;;137.95;36.33;;;;;;;7.73;70.43;101521.25;5050330;28;20033;-82
2021/01/02 10:54:48;;;;;;;142.75;35.22;;;;;;;7.77;70.43;101520.38;5049177;28;20032;-82
2021/01/02 10:57:15;;;;;;;142.63;35.20;;;;;;;7.82;70.63;101527.44;5063421;28;20047;-82
2021/01/02 10:59:48;;;;;;;158.80;35.33;;;;;;;7.91;70.29;101524.81;5048550;28;20476;-82
2021/01/02 11:02:15;;;;;;;122.78;35.58;;;;;;;7.87;70.02;101520.41;5047853;28;20043;-82
2021/01/02 11:04:41;;;;;;;83.25;34.35;;;;;;;8.01;70.03;101517.81;5043727;28;20094;-82
2021/01/02 11:07:09;;;;;;;97.43;33.10;;;;;;;8.08;70.29;101509.88;5049860;28;20029;-82
2021/01/02 11:09:36;;;;;;;90.00;33.60;;;;;;;8.15;70.24;101509.88;5051263;28;20036;-82
2021/01/02 11:12:02;;;;;;;77.72;33.25;;;;;;;8.26;70.04;101510.78;5050041;28;20033;-82
2021/01/02 11:14:28;;;;;;;91.07;34.25;;;;;;;8.29;70.54;101512.53;5047549;28;20350;-81
2021/01/02 11:16:55;;;;;;;110.80;34.65;;;;;;;8.32;69.96;101513.41;5050221;28;20029;-82
2021/01/02 11:19:24;;;;;;;106.47;35.75;;;;;;;8.43;70.30;101506.38;5051135;28;20021;-82
2021/01/02 11:21:53;;;;;;;116.07;35.15;;;;;;;8.35;69.83;101507.25;5047617;28;20037;-82
2021/01/02 11:24:22;;;;;;;88.53;33.13;;;;;;;8.37;70.19;101506.41;5047476;28;20399;-82
2021/01/02 11:26:51;;;;;;;90.70;32.17;;;;;;;8.41;69.87;101494.06;5049595;28;20029;-82
2021/01/02 11:29:19;;;;;;;93.47;33.05;;;;;;;8.33;69.98;101494.06;5049432;28;20021;-82
2021/01/02 11:31:46;;;;;;;108.95;32.85;;;;;;;8.13;69.49;101495.84;5049609;28;20484;-82
2021/01/02 11:34:13;;;;;;;87.97;31.02;;;;;;;8.13;70.05;101491.41;5050910;28;20044;-82
2021/01/02 11:36:41;;;;;;;86.80;34.15;;;;;;;8.19;69.89;101496.69;5049535;28;20031;-81
2021/01/02 11:39:07;;;;;;;89.93;34.97;;;;;;;8.16;69.55;101488.81;5050713;28;20025;-82
2021/01/02 11:41:39;;;;;;;85.15;33.45;;;;;;;8.25;69.80;101490.56;5049128;28;20029;-82
2021/01/02 11:44:08;;;;;;;73.22;30.63;;;;;;;8.26;69.33;101494.94;5050536;28;20464;-82
2021/01/02 11:46:37;;;;;;;77.03;30.75;;;;;;;8.21;69.28;101491.41;5048513;28;20021;-83
2021/01/02 11:49:05;;;;;;;69.50;31.20;;;;;;;8.23;69.69;101487.03;5050503;28;20114;-82
2021/01/02 11:51:31;;;;;;;72.07;30.92;;;;;;;8.23;69.36;101479.97;5049327;28;20052;-82
2021/01/02 11:53:58;;;;;;;70.53;31.85;;;;;;;8.25;68.93;101480.88;5050148;28;20051;-81
2021/01/02 11:56:27;;;;;;;75.97;34.63;;;;;;;8.15;69.74;101475.56;5048985;28;20057;-82
2021/01/02 11:58:55;;;;;;;75.65;34.72;;;;;;;8.21;69.25;101473.84;5050587;28;20591;-82
2021/01/02 12:01:32;;;;;;;78.72;33.50;;;;;;;8.21;68.96;101475.56;5049081;28;20311;-82
2021/01/02 12:03:58;;;;;;;75.70;33.30;;;;;;;8.31;68.85;101472.09;5050518;28;20037;-82
2021/01/02 12:06:29;;;;;;;71.13;31.98;;;;;;;8.26;68.80;101468.53;5049289;28;20083;-82
2021/01/02 12:08:55;;;;;;;66.63;31.83;;;;;;;8.26;69.18;101465.88;5049833;28;20025;-82
2021/01/02 12:11:39;;;;;;;78.13;33.47;;;;;;;8.20;69.20;101469.44;5050069;28;20437;-82
2021/01/02 12:14:06;;;;;;;90.15;37.08;;;;;;;8.20;68.81;101465.91;5047427;28;20059;-82
2021/01/02 12:16:35;;;;;;;73.82;34.15;;;;;;;8.17;68.77;101463.28;5050290;28;20029;-82
2021/01/02 12:19:02;;;;;;;79.05;36.17;;;;;;;8.10;69.13;101465.91;5048576;28;20024;-82
2021/01/02 12:21:28;;;;;;;88.10;36.85;;;;;;;8.07;68.99;101459.75;5050307;28;20193;-82
2021/01/02 12:23:55;;;;;;;76.60;34.65;;;;;;;8.18;69.13;101462.41;5048442;28;20055;-82
2021/01/02 12:26:22;;;;;;;78.20;35.00;;;;;;;8.17;68.63;101465.91;5050354;28;20048;-82
2021/01/02 12:28:49;;;;;;;78.15;34.92;;;;;;;8.08;69.29;101459.75;5048336;28;20033;-82
2021/01/02 12:31:21;;;;;;;85.05;37.55;;;;;;;8.09;68.80;101458.00;5050192;28;20487;-82
2021/01/02 12:33:47;;;;;;;97.10;37.67;;;;;;;8.07;69.23;101462.38;5048184;28;20044;-82
2021/01/02 12:36:16;;;;;;;115.88;42.22;;;;;;;7.98;69.63;101459.75;5049848;28;20112;-82
2021/01/02 12:38:43;;;;;;;95.38;42.85;;;;;;;8.09;69.45;101452.72;5048165;28;20041;-82
2021/01/02 12:41:14;;;;;;;95.85;40.42;;;;;;;8.22;68.67;101454.47;5049967;28;20041;-82
2021/01/02 12:43:42;;;;;;;89.22;39.35;;;;;;;8.38;68.46;101449.19;5044348;28;20033;-82
2021/01/02 12:46:10;;;;;;;89.35;40.05;;;;;;;8.33;68.75;101448.31;5049610;28;20086;-82
2021/01/02 12:48:36;;;;;;;104.57;42.65;;;;;;;8.42;68.64;101441.25;5048409;28;20598;-82
2021/01/02 12:51:03;;;;;;;88.88;39.92;;;;;;;8.49;68.51;101443.94;5049549;28;20044;-82
2021/01/02 12:53:29;;;;;;;82.70;38.05;;;;;;;8.51;68.71;101444.78;5048359;28;20052;-82
2021/01/02 12:55:56;;;;;;;84.22;38.95;;;;;;;8.59;68.76;101443.00;5049704;28;20044;-82
2021/01/02 12:58:22;;;;;;;89.63;39.75;;;;;;;8.65;68.78;101447.38;5047874;28;20488;-82